MMMD/MID METAR and TAF weather

Enter ICAO airport designator
Station Type Date Time Source
MMMD METAR 2019/04/19 10:45 UTC NOAA

MMMD 191045Z 20004KT 7SM FEW030 SCT070 26/21 A2985 RMK 8/570


Station Type Date Time Source
MMMD Decoded METAR 2019/04/19 10:45 UTC NOAA

Merida / lic Manuel Crecencio, Mexico (MMMD) 20-56N 089-39W 11M
Apr 19, 2019 - 06:45 AM EDT / 2019.04.19 1045 UTC
Wind: from the SSW (200 degrees) at 5 MPH (4 KT):0
Visibility: 7 mile(s):0
Sky conditions: partly cloudy
Temperature: 78 F (26 C)
Dew Point: 69 F (21 C)
Relative Humidity: 73%
Pressure (altimeter): 29.85 in. Hg (1010 hPa)
ob: MMMD 191045Z 20004KT 7SM FEW030 SCT070 26/21 A2985 RMK 8/570
cycle: 11

Station Type Date Time Source
MMMD TAF 2019/04/19 12:30 UTC NOAA

TAF MMMD 191027Z 1912/2018 14005KT 6SM HZ SCT030 SCT080 TX34/1919Z TN24/1912Z
TEMPO 1912/1915 5SM -RA BKN020
FM191500 33015KT 6SM HZ BKN030
FM191800 34015G25KT P6SM VC -RA BKN030CB
TEMPO 1919/1923 3SM TSRA OVC020CB
FM200100 34015KT 6SM HZ SCT030 BKN090
FM200600 33010KT 6SM HZ SCT020 SCT060
FM201800 33012KT 6SM HZ SCT030

Example: see airport list